createdAt,value
2023-05-11T00:02:12.580Z,32.45
2023-05-11T00:04:41.626Z,37.17
2023-05-11T00:07:10.090Z,38.05
2023-05-11T00:09:41.550Z,41.50
2023-05-11T00:12:09.847Z,40.92
2023-05-11T00:14:38.146Z,43.72
2023-05-11T00:17:06.594Z,42.20
2023-05-11T00:19:34.941Z,43.90
2023-05-11T00:22:03.563Z,39.20
2023-05-11T00:24:31.817Z,39.88
2023-05-11T00:27:01.528Z,44.47
2023-05-11T00:29:29.816Z,42.47
2023-05-11T00:31:58.208Z,43.85
2023-05-11T00:34:26.641Z,43.40
2023-05-11T00:36:56.090Z,46.53
2023-05-11T00:39:24.618Z,46.53
2023-05-11T00:41:52.884Z,45.92
2023-05-11T00:44:22.512Z,43.88
2023-05-11T00:46:50.986Z,47.10
2023-05-11T00:49:21.478Z,43.17
2023-05-11T00:51:49.977Z,42.15
2023-05-11T00:54:18.267Z,42.25
2023-05-11T00:56:48.213Z,45.17
2023-05-11T00:59:17.189Z,41.72
2023-05-11T01:01:46.981Z,40.10
2023-05-11T01:04:15.562Z,36.67
2023-05-11T01:06:56.618Z,39.58
2023-05-11T01:09:39.511Z,40.00
2023-05-11T01:12:20.385Z,36.65
2023-05-11T01:15:01.561Z,42.88
2023-05-11T01:17:44.122Z,37.17
2023-05-11T01:20:19.662Z,35.95
2023-05-11T01:23:10.933Z,38.42
2023-05-11T01:26:11.485Z,38.70
2023-05-11T01:29:08.633Z,42.88
2023-05-11T01:31:44.909Z,39.28
2023-05-11T01:34:18.719Z,36.92
2023-05-11T01:36:55.587Z,37.00
2023-05-11T01:39:35.996Z,33.17
2023-05-11T01:42:10.892Z,37.45
2023-05-11T01:44:44.256Z,32.00
2023-05-11T01:47:16.525Z,34.03
2023-05-11T01:49:47.459Z,40.00
2023-05-11T01:52:17.441Z,29.88
2023-05-11T01:54:49.570Z,29.27
2023-05-11T01:57:19.383Z,31.70
2023-05-11T01:59:50.205Z,30.15
2023-05-11T02:02:21.723Z,27.98
2023-05-11T02:04:51.537Z,26.35
2023-05-11T02:07:21.777Z,27.88
2023-05-11T02:09:52.417Z,25.63
2023-05-11T02:12:22.335Z,25.90
2023-05-11T02:14:54.553Z,25.48
2023-05-11T02:17:26.001Z,27.98
2023-05-11T02:19:56.594Z,26.02
2023-05-11T02:22:26.753Z,25.00
2023-05-11T02:24:55.134Z,24.90
2023-05-11T02:27:26.044Z,25.08
2023-05-11T02:29:56.399Z,26.35
2023-05-11T02:32:29.971Z,24.90
2023-05-11T02:35:05.687Z,26.88
2023-05-11T02:37:40.847Z,24.83
2023-05-11T02:40:18.289Z,24.75
2023-05-11T02:42:56.054Z,26.13
2023-05-11T02:45:29.488Z,26.80
2023-05-11T02:48:03.580Z,27.08
2023-05-11T02:50:37.091Z,25.67
2023-05-11T02:53:12.600Z,25.38
2023-05-11T02:55:41.432Z,27.20
2023-05-11T02:58:10.286Z,28.27
2023-05-11T03:00:40.754Z,25.45
2023-05-11T03:03:10.674Z,26.15
2023-05-11T03:05:39.259Z,25.60
2023-05-11T03:08:07.698Z,25.15
2023-05-11T03:10:36.384Z,22.98
2023-05-11T03:13:06.794Z,23.83
2023-05-11T03:15:36.716Z,28.20
2023-05-11T03:18:07.780Z,27.60
2023-05-11T03:20:42.519Z,27.80
2023-05-11T03:23:13.376Z,28.88
2023-05-11T03:25:43.822Z,27.42
2023-05-11T03:28:15.650Z,31.08
2023-05-11T03:30:54.945Z,32.30
2023-05-11T03:33:23.660Z,28.83
2023-05-11T03:35:56.079Z,32.08
2023-05-11T03:38:29.091Z,32.92
2023-05-11T03:41:01.264Z,32.25
2023-05-11T03:43:36.972Z,30.77
2023-05-11T03:46:06.230Z,31.50
2023-05-11T03:48:35.003Z,32.20
2023-05-11T03:51:06.432Z,31.38
2023-05-11T03:53:35.061Z,27.13
2023-05-11T03:56:07.200Z,26.60
2023-05-11T03:58:40.339Z,27.60
2023-05-11T04:01:09.967Z,27.70
2023-05-11T04:03:50.258Z,26.67
2023-05-11T04:06:21.085Z,25.27
2023-05-11T04:08:56.433Z,26.23
2023-05-11T04:11:24.752Z,23.75
2023-05-11T04:13:53.075Z,22.65
2023-05-11T04:16:22.384Z,24.80
2023-05-11T04:18:50.723Z,23.77
2023-05-11T04:21:20.548Z,23.30
2023-05-11T04:23:49.129Z,24.83
2023-05-11T04:26:17.522Z,26.45
2023-05-11T04:28:45.929Z,28.45
2023-05-11T04:31:16.101Z,29.08
2023-05-11T04:33:44.535Z,31.45
2023-05-11T04:36:13.237Z,28.38
2023-05-11T04:38:43.142Z,35.35
2023-05-11T04:41:12.132Z,29.45
2023-05-11T04:43:41.841Z,29.35
2023-05-11T04:46:11.255Z,29.13
2023-05-11T04:48:40.321Z,27.65
2023-05-11T04:51:08.608Z,28.10
2023-05-11T04:53:43.129Z,27.48
2023-05-11T04:56:12.032Z,30.63
2023-05-11T04:58:40.264Z,29.42
2023-05-11T05:01:08.581Z,26.65
2023-05-11T05:03:36.910Z,28.58
2023-05-11T05:06:05.418Z,26.13
2023-05-11T05:08:33.744Z,29.40
2023-05-11T05:11:03.349Z,27.95
2023-05-11T05:13:31.781Z,29.50
2023-05-11T05:16:00.117Z,27.60
2023-05-11T05:18:28.597Z,26.17
2023-05-11T05:20:56.947Z,26.55
2023-05-11T05:23:26.921Z,22.58
2023-05-11T05:25:55.283Z,26.83
2023-05-11T05:28:25.260Z,30.42
2023-05-11T05:30:54.079Z,29.17
2023-05-11T05:33:24.075Z,27.08
2023-05-11T05:35:52.414Z,28.33
2023-05-11T05:38:21.161Z,24.50
2023-05-11T05:40:49.425Z,23.40
2023-05-11T05:43:17.894Z,18.00
2023-05-11T05:45:48.986Z,21.67
2023-05-11T05:48:17.657Z,19.33
2023-05-11T05:50:46.007Z,21.25
2023-05-11T05:53:14.816Z,19.33
2023-05-11T05:55:43.207Z,21.02
2023-05-11T05:58:12.424Z,19.60
2023-05-11T06:00:41.717Z,20.23
2023-05-11T06:03:13.353Z,24.27
2023-05-11T06:05:42.731Z,25.05
2023-05-11T06:08:11.618Z,25.92
2023-05-11T06:10:40.922Z,22.70
2023-05-11T06:13:10.990Z,26.60
2023-05-11T06:15:43.346Z,25.13
2023-05-11T06:18:31.619Z,27.30
2023-05-11T06:21:00.559Z,24.95
2023-05-11T06:23:30.395Z,25.60
2023-05-11T06:25:59.063Z,24.98
2023-05-11T06:28:29.698Z,27.70
2023-05-11T06:31:03.710Z,26.85
2023-05-11T06:33:36.835Z,25.67
2023-05-11T06:36:10.184Z,27.33
2023-05-11T06:38:41.330Z,25.35
2023-05-11T06:41:11.457Z,32.50
2023-05-11T06:43:40.153Z,29.55
2023-05-11T06:46:20.204Z,25.73
2023-05-11T06:48:50.272Z,25.40
2023-05-11T06:51:18.761Z,30.88
2023-05-11T06:53:46.960Z,29.10
2023-05-11T06:56:15.280Z,26.17
2023-05-11T06:58:43.684Z,26.75
2023-05-11T07:01:12.858Z,26.55
2023-05-11T07:03:41.129Z,24.98
2023-05-11T07:06:11.722Z,25.98
2023-05-11T07:08:39.948Z,22.30
2023-05-11T07:11:08.585Z,24.30
2023-05-11T07:13:36.787Z,22.90
2023-05-11T07:16:05.366Z,24.25
2023-05-11T07:18:33.635Z,24.73
2023-05-11T07:21:01.928Z,21.48
2023-05-11T07:23:31.612Z,23.33
2023-05-11T07:25:59.853Z,22.25
2023-05-11T07:28:28.058Z,23.52
2023-05-11T07:30:56.381Z,22.00
2023-05-11T07:33:24.730Z,21.90
2023-05-11T07:35:53.334Z,21.60
2023-05-11T07:38:21.616Z,22.30
2023-05-11T07:40:51.401Z,20.98
2023-05-11T07:43:19.726Z,23.25
2023-05-11T07:45:48.133Z,20.15
2023-05-11T07:48:16.808Z,21.75
2023-05-11T07:50:45.195Z,22.90
2023-05-11T07:53:13.588Z,23.73
2023-05-11T07:55:42.060Z,24.23
2023-05-11T07:58:11.712Z,21.80
2023-05-11T08:00:40.127Z,25.17
2023-05-11T08:03:08.425Z,22.35
2023-05-11T08:05:37.871Z,26.23
2023-05-11T08:08:06.776Z,27.15
2023-05-11T08:10:36.958Z,29.67
2023-05-11T08:13:05.221Z,29.88
2023-05-11T08:15:35.027Z,30.52
2023-05-11T08:18:03.690Z,26.58
2023-05-11T08:20:31.967Z,31.58
2023-05-11T08:23:00.280Z,25.80
2023-05-11T08:25:28.553Z,29.83
2023-05-11T08:27:56.778Z,26.65
2023-05-11T08:30:25.164Z,29.73
2023-05-11T08:32:58.980Z,33.47
2023-05-11T08:35:27.767Z,31.58
2023-05-11T08:37:55.984Z,34.67
2023-05-11T08:40:28.750Z,29.58
2023-05-11T08:42:58.045Z,27.08
2023-05-11T08:45:28.014Z,28.15
2023-05-11T08:47:58.006Z,28.77
2023-05-11T08:50:26.519Z,27.90
2023-05-11T08:52:54.735Z,27.92
2023-05-11T08:55:27.036Z,26.38
2023-05-11T08:57:58.621Z,23.38
2023-05-11T09:00:29.088Z,26.45
2023-05-11T09:02:59.762Z,24.35
2023-05-11T09:05:28.826Z,25.20
2023-05-11T09:08:03.021Z,25.30
2023-05-11T09:10:32.303Z,24.42
2023-05-11T09:13:00.547Z,23.05
2023-05-11T09:15:28.843Z,22.00
2023-05-11T09:17:58.633Z,23.35
2023-05-11T09:20:31.574Z,23.98
2023-05-11T09:23:00.460Z,20.42
2023-05-11T09:25:34.964Z,25.58
2023-05-11T09:28:03.793Z,22.20
2023-05-11T09:30:32.341Z,21.92
2023-05-11T09:33:03.470Z,22.40
2023-05-11T09:35:35.250Z,25.75
2023-05-11T09:38:06.829Z,22.77
2023-05-11T09:40:37.753Z,22.23
2023-05-11T09:43:18.758Z,21.83
2023-05-11T09:45:49.737Z,22.15
2023-05-11T09:48:31.748Z,24.85
2023-05-11T09:51:03.666Z,23.23
2023-05-11T09:53:44.565Z,22.88
2023-05-11T09:56:14.018Z,23.70
2023-05-11T09:58:51.814Z,24.77
2023-05-11T10:01:30.273Z,23.85
2023-05-11T10:04:17.829Z,28.42
2023-05-11T10:06:52.935Z,23.63
2023-05-11T10:09:25.940Z,24.75
2023-05-11T10:11:56.340Z,29.33
2023-05-11T10:14:29.300Z,27.73
2023-05-11T10:16:59.494Z,29.55
2023-05-11T10:19:29.392Z,28.77
2023-05-11T10:21:58.581Z,29.08
2023-05-11T10:24:27.971Z,31.52
2023-05-11T10:26:58.851Z,25.75
2023-05-11T10:29:27.699Z,31.10
2023-05-11T10:32:00.029Z,29.40
2023-05-11T10:34:30.992Z,33.50
2023-05-11T10:37:02.125Z,31.25
2023-05-11T10:39:31.493Z,28.88
2023-05-11T10:42:30.774Z,29.33
2023-05-11T10:45:17.462Z,27.55
2023-05-11T10:48:29.779Z,24.15
2023-05-11T10:51:35.145Z,25.10
2023-05-11T10:54:22.875Z,25.02
2023-05-11T10:57:22.799Z,25.55
2023-05-11T11:00:35.878Z,25.35
2023-05-11T11:03:12.327Z,20.05
2023-05-11T11:05:43.671Z,21.65
2023-05-11T11:08:13.712Z,19.98
2023-05-11T11:10:46.202Z,20.55
2023-05-11T11:13:16.804Z,17.33
2023-05-11T11:16:10.446Z,19.25
2023-05-11T11:18:38.752Z,19.90
2023-05-11T11:21:07.117Z,19.73
2023-05-11T11:23:52.192Z,19.38
2023-05-11T11:26:50.761Z,17.73
2023-05-11T11:29:18.971Z,19.55
2023-05-11T11:31:47.609Z,22.42
2023-05-11T11:34:37.426Z,19.60
2023-05-11T11:37:09.861Z,18.63
2023-05-11T11:40:08.877Z,20.90
2023-05-11T11:42:44.047Z,20.42
2023-05-11T11:45:33.399Z,18.75
2023-05-11T11:48:14.127Z,18.42
2023-05-11T11:50:46.205Z,17.02
2023-05-11T11:54:06.578Z,18.55
2023-05-11T11:56:44.855Z,18.48
2023-05-11T11:59:15.985Z,16.23
2023-05-11T12:01:46.428Z,18.35
2023-05-11T12:04:58.954Z,18.05
2023-05-11T12:07:33.172Z,17.55
2023-05-11T12:10:04.402Z,17.40
2023-05-11T12:12:34.518Z,15.82
2023-05-11T12:15:03.972Z,16.27
2023-05-11T12:17:34.521Z,16.70
2023-05-11T12:20:24.512Z,21.70
2023-05-11T12:22:53.586Z,15.77
2023-05-11T12:25:22.592Z,16.75
2023-05-11T12:27:57.981Z,16.83
2023-05-11T12:30:30.976Z,16.77
2023-05-11T12:33:00.301Z,15.48
2023-05-11T12:35:31.618Z,15.63
2023-05-11T12:38:03.420Z,14.20
2023-05-11T12:40:32.854Z,15.13
2023-05-11T12:43:02.562Z,16.83
2023-05-11T12:45:31.219Z,14.07
2023-05-11T12:48:00.474Z,14.48
2023-05-11T12:50:28.833Z,13.38
2023-05-11T12:53:14.601Z,14.05
2023-05-11T12:55:43.647Z,16.27
2023-05-11T12:58:16.017Z,14.27
2023-05-11T13:00:55.155Z,17.50
2023-05-11T13:03:24.648Z,13.90
2023-05-11T13:05:54.251Z,14.73
2023-05-11T13:08:22.673Z,16.33
2023-05-11T13:10:51.044Z,11.93
2023-05-11T13:13:30.637Z,13.40
2023-05-11T13:15:59.004Z,13.45
2023-05-11T13:18:27.361Z,11.77
2023-05-11T13:21:07.412Z,13.18
2023-05-11T13:23:36.935Z,13.52
2023-05-11T13:26:05.348Z,12.65
2023-05-11T13:28:35.247Z,14.23
2023-05-11T13:31:03.635Z,13.35
2023-05-11T13:33:32.130Z,15.43
2023-05-11T13:36:00.393Z,12.52
2023-05-11T13:38:28.919Z,13.18
2023-05-11T13:40:57.129Z,11.82
2023-05-11T13:43:26.222Z,13.60
2023-05-11T13:45:56.400Z,10.82
2023-05-11T13:48:24.741Z,11.15
2023-05-11T13:50:52.999Z,11.63
2023-05-11T13:53:21.307Z,11.23
2023-05-11T13:55:49.632Z,12.63
2023-05-11T13:58:18.615Z,14.07
2023-05-11T14:00:56.577Z,14.50
2023-05-11T14:03:36.534Z,12.98
2023-05-11T14:06:05.383Z,12.23
2023-05-11T14:08:33.591Z,11.55
2023-05-11T14:11:01.863Z,12.02
2023-05-11T14:13:30.144Z,10.27
2023-05-11T14:15:59.101Z,12.05
2023-05-11T14:18:27.526Z,9.88
2023-05-11T14:20:57.280Z,10.93
2023-05-11T14:23:25.830Z,10.63
2023-05-11T14:25:54.189Z,11.85
2023-05-11T14:28:22.357Z,11.85
2023-05-11T14:30:50.727Z,12.13
2023-05-11T14:33:19.063Z,9.82
2023-05-11T14:35:49.242Z,10.60
2023-05-11T14:38:19.126Z,9.55
2023-05-11T14:40:47.697Z,9.85
2023-05-11T14:43:16.275Z,10.48
2023-05-11T14:45:48.389Z,13.50
2023-05-11T14:48:17.096Z,9.32
2023-05-11T14:50:45.336Z,10.90
2023-05-11T14:53:13.770Z,11.15
2023-05-11T14:55:43.681Z,11.75
2023-05-11T14:58:11.915Z,10.85
2023-05-11T15:00:40.981Z,13.20
2023-05-11T15:03:10.830Z,11.55
2023-05-11T15:05:39.519Z,10.77
2023-05-11T15:08:18.404Z,11.43
2023-05-11T15:10:55.733Z,11.48
2023-05-11T15:13:24.361Z,12.15
2023-05-11T15:15:53.106Z,11.40
2023-05-11T15:18:21.441Z,12.15
2023-05-11T15:20:49.942Z,11.75
2023-05-11T15:23:18.220Z,11.45
2023-05-11T15:25:46.526Z,12.10
2023-05-11T15:28:16.458Z,10.70
2023-05-11T15:30:44.723Z,10.25
2023-05-11T15:33:13.024Z,10.93
2023-05-11T15:35:41.597Z,10.77
2023-05-11T15:38:09.905Z,12.45
2023-05-11T15:40:38.210Z,12.93
2023-05-11T15:43:06.544Z,11.98
2023-05-11T15:45:36.259Z,12.63
2023-05-11T15:48:05.096Z,14.32
2023-05-11T15:50:33.411Z,13.05
2023-05-11T15:53:02.096Z,11.32
2023-05-11T15:55:30.398Z,11.98
2023-05-11T15:57:58.711Z,13.50
2023-05-11T16:00:27.357Z,12.05
2023-05-11T16:02:57.008Z,11.32
2023-05-11T16:05:25.306Z,11.02
2023-05-11T16:07:54.007Z,11.95
2023-05-11T16:10:22.452Z,12.68
2023-05-11T16:12:50.962Z,12.38
2023-05-11T16:15:19.226Z,14.55
2023-05-11T16:17:48.272Z,14.85
2023-05-11T16:20:18.326Z,14.45
2023-05-11T16:22:47.489Z,15.15
2023-05-11T16:25:16.103Z,14.27
2023-05-11T16:27:44.375Z,17.00
2023-05-11T16:30:23.430Z,15.90
2023-05-11T16:32:54.309Z,16.80
2023-05-11T16:35:24.260Z,16.73
2023-05-11T16:37:52.877Z,17.60
2023-05-11T16:40:22.117Z,18.00
2023-05-11T16:42:50.683Z,18.00
2023-05-11T16:45:19.217Z,19.45
2023-05-11T16:47:47.573Z,18.67
2023-05-11T16:50:16.695Z,20.30
2023-05-11T16:52:46.492Z,18.33
2023-05-11T16:55:15.869Z,21.90
2023-05-11T16:57:44.929Z,19.15
2023-05-11T17:00:15.241Z,18.38
2023-05-11T17:02:43.723Z,21.52
2023-05-11T17:05:13.564Z,24.60
2023-05-11T17:07:44.817Z,20.92
2023-05-11T17:10:14.667Z,22.10
2023-05-11T17:12:43.120Z,22.30
2023-05-11T17:15:11.792Z,21.15
2023-05-11T17:17:41.053Z,22.35
2023-05-11T17:20:10.997Z,23.67
2023-05-11T17:22:39.931Z,24.60
2023-05-11T17:25:09.281Z,21.88
2023-05-11T17:27:38.980Z,19.83
2023-05-11T17:30:09.624Z,21.67
2023-05-11T17:32:38.214Z,20.58
2023-05-11T17:35:08.055Z,21.45
2023-05-11T17:37:36.457Z,24.30
2023-05-11T17:40:06.181Z,22.15
2023-05-11T17:42:34.827Z,23.30
2023-05-11T17:45:04.946Z,21.88
2023-05-11T17:47:33.299Z,24.25
2023-05-11T17:50:01.595Z,23.90
2023-05-11T17:52:29.983Z,23.73
2023-05-11T17:54:58.499Z,23.20
2023-05-11T17:57:27.734Z,22.00
2023-05-11T17:59:56.297Z,26.42
2023-05-11T18:02:26.052Z,23.45
2023-05-11T18:04:54.621Z,22.02
2023-05-11T18:07:22.895Z,23.60
2023-05-11T18:09:51.155Z,27.45
2023-05-11T18:12:19.525Z,25.88
2023-05-11T18:14:47.794Z,26.40
2023-05-11T18:17:16.167Z,27.50
2023-05-11T18:19:45.855Z,26.73
2023-05-11T18:22:14.141Z,26.60
2023-05-11T18:24:42.445Z,26.50
2023-05-11T18:27:11.334Z,26.73
2023-05-11T18:29:40.958Z,27.83
2023-05-11T18:32:09.336Z,26.00
2023-05-11T18:34:41.061Z,26.85
2023-05-11T18:37:11.051Z,26.77
2023-05-11T18:39:39.338Z,26.38
2023-05-11T18:42:08.360Z,25.50
2023-05-11T18:44:36.616Z,25.00
2023-05-11T18:47:05.557Z,24.20
2023-05-11T18:49:34.080Z,24.23
2023-05-11T18:52:03.804Z,24.50
2023-05-11T18:54:33.820Z,23.20
2023-05-11T18:57:02.431Z,23.95
2023-05-11T18:59:30.639Z,22.52
2023-05-11T19:01:59.137Z,25.00
2023-05-11T19:04:27.669Z,21.17
2023-05-11T19:06:56.267Z,20.67
2023-05-11T19:09:24.664Z,21.48
2023-05-11T19:11:55.247Z,21.20
2023-05-11T19:14:23.592Z,24.58
2023-05-11T19:16:51.873Z,21.58
2023-05-11T19:19:20.104Z,20.52
2023-05-11T19:21:48.920Z,20.17
2023-05-11T19:24:17.170Z,20.20
2023-05-11T19:26:52.217Z,23.83
2023-05-11T19:29:28.512Z,19.08
2023-05-11T19:31:56.769Z,20.17
2023-05-11T19:34:25.183Z,20.00
2023-05-11T19:36:53.453Z,21.17
2023-05-11T19:39:21.721Z,19.63
2023-05-11T19:41:49.946Z,20.38
2023-05-11T19:44:18.690Z,21.08
2023-05-11T19:46:48.591Z,19.90
2023-05-11T19:49:18.006Z,20.05
2023-05-11T19:51:46.338Z,19.75
2023-05-11T19:54:15.381Z,20.25
2023-05-11T19:56:43.652Z,21.90
2023-05-11T19:59:11.908Z,20.52
2023-05-11T20:01:40.433Z,19.67
2023-05-11T20:04:12.596Z,19.33
2023-05-11T20:06:40.872Z,19.77
2023-05-11T20:09:09.249Z,21.75
2023-05-11T20:11:37.656Z,20.20
2023-05-11T20:14:06.119Z,21.33
2023-05-11T20:16:34.516Z,21.95
2023-05-11T20:19:02.885Z,18.58
2023-05-11T20:21:33.696Z,22.80
2023-05-11T20:24:01.998Z,19.67
2023-05-11T20:26:30.868Z,18.95
2023-05-11T20:28:59.076Z,19.42
2023-05-11T20:31:27.712Z,19.42
2023-05-11T20:36:27.293Z,19.80
2023-05-11T20:38:56.956Z,21.15
2023-05-11T20:41:25.221Z,18.33
2023-05-11T20:43:53.818Z,16.65
2023-05-11T20:46:22.235Z,17.70
2023-05-11T20:48:51.920Z,17.42
2023-05-11T20:51:23.123Z,15.50
2023-05-11T20:53:51.617Z,15.18
2023-05-11T20:56:21.331Z,14.90
2023-05-11T20:58:49.543Z,14.73
2023-05-11T21:01:18.383Z,14.25
2023-05-11T21:03:47.089Z,15.25
2023-05-11T21:06:15.800Z,12.15
2023-05-11T21:08:44.163Z,12.55
2023-05-11T21:11:12.425Z,13.00
2023-05-11T21:13:42.060Z,12.88
2023-05-11T21:16:10.420Z,12.73
2023-05-11T21:18:38.839Z,12.90
2023-05-11T21:21:07.448Z,13.45
2023-05-11T21:23:35.805Z,13.27
2023-05-11T21:26:04.423Z,13.15
2023-05-11T21:28:34.539Z,11.20
2023-05-11T21:31:04.391Z,13.45
2023-05-11T21:33:32.749Z,13.40
2023-05-11T21:36:00.997Z,13.90
2023-05-11T21:38:29.345Z,13.95
2023-05-11T21:40:57.831Z,13.50
2023-05-11T21:43:26.675Z,11.30
2023-05-11T21:45:54.935Z,15.27
2023-05-11T21:48:24.779Z,11.15
2023-05-11T21:50:54.373Z,11.25
2023-05-11T21:53:23.766Z,13.25
2023-05-11T21:55:52.369Z,12.35
2023-05-11T21:58:20.906Z,11.52
2023-05-11T22:00:49.303Z,12.52
2023-05-11T22:03:17.743Z,13.63
2023-05-11T22:05:47.492Z,11.70
2023-05-11T22:08:16.155Z,12.98
2023-05-11T22:10:44.722Z,12.35
2023-05-11T22:13:12.955Z,11.45
2023-05-11T22:15:41.937Z,10.73
2023-05-11T22:18:10.290Z,10.82
2023-05-11T22:20:38.870Z,16.27
2023-05-11T22:23:08.601Z,11.00
2023-05-11T22:25:36.995Z,12.52
2023-05-11T22:28:05.480Z,13.52
2023-05-11T22:30:33.788Z,11.32
2023-05-11T22:33:02.097Z,12.23
2023-05-11T22:35:30.790Z,14.75
2023-05-11T22:38:01.502Z,12.20
2023-05-11T22:40:31.100Z,11.73
2023-05-11T22:42:59.304Z,13.38
2023-05-11T22:45:27.649Z,16.42
2023-05-11T22:47:55.957Z,13.98
2023-05-11T22:50:24.231Z,12.77
2023-05-11T22:52:53.626Z,11.13
2023-05-11T22:55:23.132Z,10.95
2023-05-11T22:57:52.683Z,12.40
2023-05-11T23:00:21.481Z,14.38
2023-05-11T23:02:50.052Z,10.65
2023-05-11T23:05:18.347Z,13.85
2023-05-11T23:07:46.546Z,13.18
2023-05-11T23:10:15.080Z,11.55
2023-05-11T23:12:43.512Z,10.77
2023-05-11T23:15:13.400Z,12.93
2023-05-11T23:17:41.860Z,10.48
2023-05-11T23:20:11.961Z,10.13
2023-05-11T23:22:40.182Z,10.40
2023-05-11T23:25:10.395Z,9.55
2023-05-11T23:27:38.693Z,10.93
2023-05-11T23:30:08.570Z,13.75
2023-05-11T23:32:38.136Z,10.20
2023-05-11T23:35:07.711Z,11.30
2023-05-11T23:37:35.900Z,10.10
2023-05-11T23:40:05.481Z,9.98
2023-05-11T23:42:33.748Z,12.00
2023-05-11T23:45:04.284Z,10.13
2023-05-11T23:47:33.859Z,9.60
2023-05-11T23:50:03.969Z,11.93
2023-05-11T23:52:32.153Z,11.48
2023-05-11T23:55:00.344Z,9.00
2023-05-11T23:57:28.574Z,11.27
2023-05-11T23:59:57.015Z,9.02
